sensor_id;sensor_type;location;lat;lon;timestamp;pressure;altitude;pressure_sealevel;temperature;humidity
23229;BME280;11783;50.350;6.576;2023-04-20T00:02:00;96443.97;;;5.89;55.79
23229;BME280;11783;50.350;6.576;2023-04-20T00:04:29;96448.88;;;5.78;56.54
23229;BME280;11783;50.350;6.576;2023-04-20T00:06:55;96441.16;;;5.70;56.99
23229;BME280;11783;50.350;6.576;2023-04-20T00:09:25;96448.88;;;5.72;58.30
23229;BME280;11783;50.350;6.576;2023-04-20T00:11:51;96446.06;;;5.67;57.72
23229;BME280;11783;50.350;6.576;2023-04-20T00:14:17;96441.00;;;5.65;57.57
23229;BME280;11783;50.350;6.576;2023-04-20T00:16:43;96441.16;;;5.70;58.18
23229;BME280;11783;50.350;6.576;2023-04-20T00:19:08;96428.59;;;5.72;58.05
23229;BME280;11783;50.350;6.576;2023-04-20T00:21:34;96426.78;;;5.66;58.42
23229;BME280;11783;50.350;6.576;2023-04-20T00:24:00;96427.84;;;5.59;57.37
23229;BME280;11783;50.350;6.576;2023-04-20T00:26:25;96419.28;;;5.57;58.10
23229;BME280;11783;50.350;6.576;2023-04-20T00:28:51;96411.59;;;5.55;58.27
23229;BME280;11783;50.350;6.576;2023-04-20T00:31:17;96414.44;;;5.54;58.23
23229;BME280;11783;50.350;6.576;2023-04-20T00:33:42;96410.19;;;5.53;58.38
23229;BME280;11783;50.350;6.576;2023-04-20T00:36:08;96408.97;;;5.48;58.89
23229;BME280;11783;50.350;6.576;2023-04-20T00:38:33;96416.09;;;5.48;59.18
23229;BME280;11783;50.350;6.576;2023-04-20T00:40:59;96399.47;;;5.47;58.77
23229;BME280;11783;50.350;6.576;2023-04-20T00:43:25;96407.56;;;5.46;58.81
23229;BME280;11783;50.350;6.576;2023-04-20T00:45:50;96403.31;;;5.38;58.95
23229;BME280;11783;50.350;6.576;2023-04-20T00:48:19;96396.44;;;5.31;59.14
23229;BME280;11783;50.350;6.576;2023-04-20T00:50:44;96392.78;;;5.32;58.98
23229;BME280;11783;50.350;6.576;2023-04-20T00:53:11;96395.84;;;5.29;59.86
23229;BME280;11783;50.350;6.576;2023-04-20T00:55:37;96397.06;;;5.26;59.44
23229;BME280;11783;50.350;6.576;2023-04-20T00:58:03;96392.81;;;5.18;59.68
23229;BME280;11783;50.350;6.576;2023-04-20T01:00:29;96388.34;;;5.19;59.30
23229;BME280;11783;50.350;6.576;2023-04-20T01:02:55;96382.88;;;5.14;59.36
23229;BME280;11783;50.350;6.576;2023-04-20T01:05:20;96380.03;;;5.15;60.02
23229;BME280;11783;50.350;6.576;2023-04-20T01:07:46;96369.94;;;5.12;60.29
23229;BME280;11783;50.350;6.576;2023-04-20T01:10:11;96368.50;;;5.10;60.76
23229;BME280;11783;50.350;6.576;2023-04-20T01:12:37;96361.22;;;5.05;61.38
23229;BME280;11783;50.350;6.576;2023-04-20T01:15:04;96353.13;;;5.07;60.85
23229;BME280;11783;50.350;6.576;2023-04-20T01:17:30;96352.91;;;5.08;61.24
23229;BME280;11783;50.350;6.576;2023-04-20T01:19:55;96342.78;;;5.05;60.68
23229;BME280;11783;50.350;6.576;2023-04-20T01:22:21;96341.38;;;4.96;61.34
23229;BME280;11783;50.350;6.576;2023-04-20T01:24:46;96339.34;;;4.92;60.66
23229;BME280;11783;50.350;6.576;2023-04-20T01:27:13;96339.97;;;4.87;59.95
23229;BME280;11783;50.350;6.576;2023-04-20T01:29:40;96336.13;;;4.83;60.36
23229;BME280;11783;50.350;6.576;2023-04-20T01:32:06;96325.59;;;4.83;60.21
23229;BME280;11783;50.350;6.576;2023-04-20T01:34:31;96322.13;;;4.82;60.60
23229;BME280;11783;50.350;6.576;2023-04-20T01:36:57;96322.97;;;4.76;60.59
23229;BME280;11783;50.350;6.576;2023-04-20T01:39:22;96317.69;;;4.76;61.71
23229;BME280;11783;50.350;6.576;2023-04-20T01:41:48;96310.63;;;4.70;61.93
23229;BME280;11783;50.350;6.576;2023-04-20T01:44:13;96305.56;;;4.69;61.95
23229;BME280;11783;50.350;6.576;2023-04-20T01:46:39;96299.69;;;4.67;62.22
23229;BME280;11783;50.350;6.576;2023-04-20T01:49:05;96296.03;;;4.61;62.25
23229;BME280;11783;50.350;6.576;2023-04-20T01:51:31;96301.69;;;4.65;62.11
23229;BME280;11783;50.350;6.576;2023-04-20T01:54:00;96301.09;;;4.63;61.84
23229;BME280;11783;50.350;6.576;2023-04-20T01:56:26;96293.22;;;4.56;62.99
23229;BME280;11783;50.350;6.576;2023-04-20T01:58:51;96291.00;;;4.53;62.67
23229;BME280;11783;50.350;6.576;2023-04-20T02:01:17;96297.47;;;4.44;63.04
23229;BME280;11783;50.350;6.576;2023-04-20T02:03:42;96297.66;;;4.42;62.80
23229;BME280;11783;50.350;6.576;2023-04-20T02:06:08;96292.81;;;4.39;63.36
23229;BME280;11783;50.350;6.576;2023-04-20T02:08:33;96295.84;;;4.36;63.31
23229;BME280;11783;50.350;6.576;2023-04-20T02:10:59;96292.41;;;4.42;62.81
23229;BME280;11783;50.350;6.576;2023-04-20T02:13:24;96289.97;;;4.41;62.52
23229;BME280;11783;50.350;6.576;2023-04-20T02:15:49;96285.94;;;4.38;63.64
23229;BME280;11783;50.350;6.576;2023-04-20T02:18:15;96281.28;;;4.34;64.08
23229;BME280;11783;50.350;6.576;2023-04-20T02:20:41;96284.13;;;4.32;63.86
23229;BME280;11783;50.350;6.576;2023-04-20T02:23:07;96285.34;;;4.30;64.05
23229;BME280;11783;50.350;6.576;2023-04-20T02:25:32;96276.44;;;4.31;63.99
23229;BME280;11783;50.350;6.576;2023-04-20T02:27:58;96276.81;;;4.34;62.94
23229;BME280;11783;50.350;6.576;2023-04-20T02:30:23;96269.75;;;4.35;63.68
23229;BME280;11783;50.350;6.576;2023-04-20T02:32:48;96277.44;;;4.30;64.17
23229;BME280;11783;50.350;6.576;2023-04-20T02:35:14;96269.34;;;4.31;63.93
23229;BME280;11783;50.350;6.576;2023-04-20T02:37:39;96273.00;;;4.30;64.01
23229;BME280;11783;50.350;6.576;2023-04-20T02:40:05;96264.28;;;4.30;63.73
23229;BME280;11783;50.350;6.576;2023-04-20T02:42:31;96262.25;;;4.32;63.72
23229;BME280;11783;50.350;6.576;2023-04-20T02:44:56;96256.78;;;4.20;64.07
23229;BME280;11783;50.350;6.576;2023-04-20T02:47:22;96258.00;;;4.17;64.74
23229;BME280;11783;50.350;6.576;2023-04-20T02:49:47;96251.31;;;4.15;64.71
23229;BME280;11783;50.350;6.576;2023-04-20T02:52:13;96256.19;;;4.18;64.30
23229;BME280;11783;50.350;6.576;2023-04-20T02:54:38;96254.34;;;4.18;64.42
23229;BME280;11783;50.350;6.576;2023-04-20T02:57:04;96244.44;;;4.07;64.45
23229;BME280;11783;50.350;6.576;2023-04-20T02:59:29;96242.81;;;4.06;64.82
23229;BME280;11783;50.350;6.576;2023-04-20T03:01:54;96239.56;;;4.04;65.08
23229;BME280;11783;50.350;6.576;2023-04-20T03:04:20;96236.75;;;4.06;64.86
23229;BME280;11783;50.350;6.576;2023-04-20T03:06:46;96239.59;;;3.98;65.55
23229;BME280;11783;50.350;6.576;2023-04-20T03:09:11;96230.28;;;3.95;65.89
23229;BME280;11783;50.350;6.576;2023-04-20T03:11:37;96227.03;;;4.06;65.30
23229;BME280;11783;50.350;6.576;2023-04-20T03:14:02;96222.56;;;4.07;65.81
23229;BME280;11783;50.350;6.576;2023-04-20T03:16:28;96213.28;;;4.04;65.18
23229;BME280;11783;50.350;6.576;2023-04-20T03:18:53;96208.44;;;4.01;67.09
23229;BME280;11783;50.350;6.576;2023-04-20T03:21:18;96215.31;;;4.02;66.27
23229;BME280;11783;50.350;6.576;2023-04-20T03:23:44;96211.88;;;3.95;67.06
23229;BME280;11783;50.350;6.576;2023-04-20T03:26:10;96202.34;;;4.01;67.03
23229;BME280;11783;50.350;6.576;2023-04-20T03:28:37;96198.91;;;4.00;66.95
23229;BME280;11783;50.350;6.576;2023-04-20T03:31:02;96197.31;;;3.99;67.06
23229;BME280;11783;50.350;6.576;2023-04-20T03:33:27;96194.06;;;3.97;67.23
23229;BME280;11783;50.350;6.576;2023-04-20T03:35:53;96203.78;;;4.03;67.15
23229;BME280;11783;50.350;6.576;2023-04-20T03:38:18;96197.28;;;4.06;66.71
23229;BME280;11783;50.350;6.576;2023-04-20T03:40:43;96182.31;;;4.06;69.06
23229;BME280;11783;50.350;6.576;2023-04-20T03:43:08;96176.84;;;4.08;68.20
23229;BME280;11783;50.350;6.576;2023-04-20T03:45:36;96172.00;;;4.05;67.67
23229;BME280;11783;50.350;6.576;2023-04-20T03:48:01;96172.41;;;4.08;67.86
23229;BME280;11783;50.350;6.576;2023-04-20T03:50:27;96171.22;;;4.11;67.14
23229;BME280;11783;50.350;6.576;2023-04-20T03:52:52;96173.44;;;4.14;66.68
23229;BME280;11783;50.350;6.576;2023-04-20T03:55:17;96173.81;;;4.17;66.88
23229;BME280;11783;50.350;6.576;2023-04-20T03:57:43;96168.78;;;4.16;67.24
23229;BME280;11783;50.350;6.576;2023-04-20T04:00:08;96165.16;;;4.10;68.15
23229;BME280;11783;50.350;6.576;2023-04-20T04:02:35;96165.53;;;4.07;66.68
23229;BME280;11783;50.350;6.576;2023-04-20T04:05:00;96168.78;;;4.16;66.53
23229;BME280;11783;50.350;6.576;2023-04-20T04:07:25;96171.41;;;4.16;68.15
23229;BME280;11783;50.350;6.576;2023-04-20T04:09:51;96175.25;;;4.13;67.26
23229;BME280;11783;50.350;6.576;2023-04-20T04:12:16;96173.03;;;3.97;68.82
23229;BME280;11783;50.350;6.576;2023-04-20T04:14:42;96184.56;;;4.03;69.10
23229;BME280;11783;50.350;6.576;2023-04-20T04:17:07;96173.41;;;3.54;74.83
23229;BME280;11783;50.350;6.576;2023-04-20T04:19:32;96185.94;;;3.59;73.92
23229;BME280;11783;50.350;6.576;2023-04-20T04:21:58;96179.47;;;3.61;74.63
23229;BME280;11783;50.350;6.576;2023-04-20T04:24:23;96192.66;;;3.81;73.93
23229;BME280;11783;50.350;6.576;2023-04-20T04:26:48;96189.22;;;3.74;75.93
23229;BME280;11783;50.350;6.576;2023-04-20T04:29:14;96186.56;;;3.54;77.82
23229;BME280;11783;50.350;6.576;2023-04-20T04:31:40;96193.25;;;3.77;77.26
23229;BME280;11783;50.350;6.576;2023-04-20T04:34:05;96193.47;;;3.75;75.74
23229;BME280;11783;50.350;6.576;2023-04-20T04:36:30;96191.41;;;3.71;80.53
23229;BME280;11783;50.350;6.576;2023-04-20T04:38:56;96186.56;;;3.81;76.59
23229;BME280;11783;50.350;6.576;2023-04-20T04:41:21;96174.84;;;3.90;78.39
23229;BME280;11783;50.350;6.576;2023-04-20T04:43:47;96176.47;;;3.78;76.70
23229;BME280;11783;50.350;6.576;2023-04-20T04:46:12;96182.75;;;3.97;77.93
23229;BME280;11783;50.350;6.576;2023-04-20T04:48:39;96177.28;;;3.98;76.49
23229;BME280;11783;50.350;6.576;2023-04-20T04:51:08;96172.84;;;4.12;78.42
23229;BME280;11783;50.350;6.576;2023-04-20T04:53:34;96179.72;;;4.13;81.44
23229;BME280;11783;50.350;6.576;2023-04-20T04:55:59;96173.44;;;3.94;85.86
23229;BME280;11783;50.350;6.576;2023-04-20T04:58:25;96166.94;;;3.90;80.73
23229;BME280;11783;50.350;6.576;2023-04-20T05:00:50;96162.72;;;4.02;81.57
23229;BME280;11783;50.350;6.576;2023-04-20T05:03:15;96166.94;;;4.03;82.24
23229;BME280;11783;50.350;6.576;2023-04-20T05:05:41;96156.03;;;4.00;81.83
23229;BME280;11783;50.350;6.576;2023-04-20T05:08:06;96159.06;;;3.90;83.30
23229;BME280;11783;50.350;6.576;2023-04-20T05:10:32;96171.41;;;3.89;81.78
23229;BME280;11783;50.350;6.576;2023-04-20T05:12:57;96164.31;;;3.90;83.19
23229;BME280;11783;50.350;6.576;2023-04-20T05:15:24;96165.56;;;3.74;87.05
23229;BME280;11783;50.350;6.576;2023-04-20T05:17:49;96158.03;;;3.71;83.11
23229;BME280;11783;50.350;6.576;2023-04-20T05:20:15;96172.81;;;3.85;82.55
23229;BME280;11783;50.350;6.576;2023-04-20T05:22:40;96166.34;;;3.81;89.47
23229;BME280;11783;50.350;6.576;2023-04-20T05:25:06;96168.38;;;3.86;86.29
23229;BME280;11783;50.350;6.576;2023-04-20T05:27:32;96170.00;;;3.93;85.25
23229;BME280;11783;50.350;6.576;2023-04-20T05:29:58;96162.72;;;4.02;85.53
23229;BME280;11783;50.350;6.576;2023-04-20T05:32:23;96159.88;;;3.84;82.68
23229;BME280;11783;50.350;6.576;2023-04-20T05:34:48;96163.53;;;3.96;83.52
23229;BME280;11783;50.350;6.576;2023-04-20T05:37:14;96157.66;;;4.01;86.49
23229;BME280;11783;50.350;6.576;2023-04-20T05:39:40;96156.84;;;3.93;82.26
23229;BME280;11783;50.350;6.576;2023-04-20T05:42:05;96155.63;;;4.03;85.15
23229;BME280;11783;50.350;6.576;2023-04-20T05:44:30;96158.66;;;4.00;86.02
23229;BME280;11783;50.350;6.576;2023-04-20T05:46:58;96158.28;;;3.96;84.62
23229;BME280;11783;50.350;6.576;2023-04-20T05:49:23;96157.84;;;3.86;84.53
23229;BME280;11783;50.350;6.576;2023-04-20T05:51:48;96155.03;;;3.87;85.68
23229;BME280;11783;50.350;6.576;2023-04-20T05:54:14;96151.38;;;3.88;89.00
23229;BME280;11783;50.350;6.576;2023-04-20T05:56:39;96154.81;;;3.82;92.23
23229;BME280;11783;50.350;6.576;2023-04-20T05:59:05;96142.09;;;3.86;90.07
23229;BME280;11783;50.350;6.576;2023-04-20T06:01:30;96150.38;;;3.83;91.81
23229;BME280;11783;50.350;6.576;2023-04-20T06:03:56;96140.06;;;3.68;96.10
23229;BME280;11783;50.350;6.576;2023-04-20T06:06:21;96148.97;;;3.80;93.78
23229;BME280;11783;50.350;6.576;2023-04-20T06:08:46;96147.56;;;3.78;96.97
23229;BME280;11783;50.350;6.576;2023-04-20T06:11:12;96144.53;;;3.81;96.20
23229;BME280;11783;50.350;6.576;2023-04-20T06:13:37;96147.97;;;3.94;93.74
23229;BME280;11783;50.350;6.576;2023-04-20T06:16:02;96142.50;;;3.96;94.92
23229;BME280;11783;50.350;6.576;2023-04-20T06:18:33;96140.06;;;3.88;95.77
23229;BME280;11783;50.350;6.576;2023-04-20T06:20:58;96136.63;;;3.94;95.84
23229;BME280;11783;50.350;6.576;2023-04-20T06:23:25;96133.41;;;3.92;95.36
23229;BME280;11783;50.350;6.576;2023-04-20T06:25:50;96132.38;;;4.00;94.54
23229;BME280;11783;50.350;6.576;2023-04-20T06:28:15;96132.34;;;4.06;95.34
23229;BME280;11783;50.350;6.576;2023-04-20T06:30:41;96128.31;;;4.04;98.31
23229;BME280;11783;50.350;6.576;2023-04-20T06:33:06;96119.41;;;4.05;98.90
23229;BME280;11783;50.350;6.576;2023-04-20T06:35:31;96120.00;;;4.07;99.39
23229;BME280;11783;50.350;6.576;2023-04-20T06:37:57;96121.66;;;4.01;96.06
23229;BME280;11783;50.350;6.576;2023-04-20T06:40:26;96122.63;;;4.20;93.69
23229;BME280;11783;50.350;6.576;2023-04-20T06:42:52;96116.78;;;4.11;96.63
23229;BME280;11783;50.350;6.576;2023-04-20T06:45:18;96124.22;;;4.28;93.97
23229;BME280;11783;50.350;6.576;2023-04-20T06:47:44;96121.41;;;4.29;95.48
23229;BME280;11783;50.350;6.576;2023-04-20T06:50:09;96120.75;;;4.40;94.09
23229;BME280;11783;50.350;6.576;2023-04-20T06:52:38;96122.38;;;4.48;88.71
23229;BME280;11783;50.350;6.576;2023-04-20T06:55:05;96122.97;;;4.43;89.29
23229;BME280;11783;50.350;6.576;2023-04-20T06:57:30;96116.91;;;4.49;90.32
23229;BME280;11783;50.350;6.576;2023-04-20T06:59:55;96116.09;;;4.42;92.29
23229;BME280;11783;50.350;6.576;2023-04-20T07:02:23;96117.16;;;4.21;91.66
23229;BME280;11783;50.350;6.576;2023-04-20T07:04:48;96114.13;;;4.24;90.04
23229;BME280;11783;50.350;6.576;2023-04-20T07:07:13;96112.06;;;4.40;94.04
23229;BME280;11783;50.350;6.576;2023-04-20T07:09:39;96107.59;;;4.40;90.32
23229;BME280;11783;50.350;6.576;2023-04-20T07:12:04;96107.84;;;4.32;89.30
23229;BME280;11783;50.350;6.576;2023-04-20T07:14:29;96114.06;;;4.44;89.69
23229;BME280;11783;50.350;6.576;2023-04-20T07:16:55;96105.22;;;4.32;94.31
23229;BME280;11783;50.350;6.576;2023-04-20T07:19:20;96120.38;;;4.37;93.35
23229;BME280;11783;50.350;6.576;2023-04-20T07:21:45;96100.34;;;4.36;93.80
23229;BME280;11783;50.350;6.576;2023-04-20T07:24:11;96107.41;;;4.35;95.47
23229;BME280;11783;50.350;6.576;2023-04-20T07:26:36;96102.78;;;4.31;95.43
23229;BME280;11783;50.350;6.576;2023-04-20T07:29:02;96109.22;;;4.41;92.76
23229;BME280;11783;50.350;6.576;2023-04-20T07:31:27;96111.63;;;4.49;93.60
23229;BME280;11783;50.350;6.576;2023-04-20T07:33:52;96103.75;;;4.49;93.46
23229;BME280;11783;50.350;6.576;2023-04-20T07:36:18;96100.31;;;4.42;96.39
23229;BME280;11783;50.350;6.576;2023-04-20T07:38:44;96105.16;;;4.45;96.19
23229;BME280;11783;50.350;6.576;2023-04-20T07:41:10;96104.75;;;4.42;98.16
23229;BME280;11783;50.350;6.576;2023-04-20T07:43:35;96096.66;;;4.43;96.89
23229;BME280;11783;50.350;6.576;2023-04-20T07:46:01;96101.53;;;4.40;99.45
23229;BME280;11783;50.350;6.576;2023-04-20T07:48:26;96098.28;;;4.51;97.62
23229;BME280;11783;50.350;6.576;2023-04-20T07:50:52;96094.84;;;4.44;100.00
23229;BME280;11783;50.350;6.576;2023-04-20T07:53:17;96103.75;;;4.49;97.97
23229;BME280;11783;50.350;6.576;2023-04-20T07:55:43;96100.31;;;4.49;97.49
23229;BME280;11783;50.350;6.576;2023-04-20T07:58:08;96102.34;;;4.40;99.35
23229;BME280;11783;50.350;6.576;2023-04-20T08:00:34;96094.91;;;4.17;100.00
23229;BME280;11783;50.350;6.576;2023-04-20T08:02:59;96097.72;;;4.36;100.00
23229;BME280;11783;50.350;6.576;2023-04-20T08:05:24;96098.66;;;4.54;99.88
23229;BME280;11783;50.350;6.576;2023-04-20T08:07:50;96094.81;;;4.57;99.98
23229;BME280;11783;50.350;6.576;2023-04-20T08:10:15;96089.06;;;4.73;99.93
23229;BME280;11783;50.350;6.576;2023-04-20T08:12:41;96095.69;;;4.82;97.89
23229;BME280;11783;50.350;6.576;2023-04-20T08:15:07;96091.44;;;4.81;99.63
23229;BME280;11783;50.350;6.576;2023-04-20T08:17:32;96093.47;;;4.79;97.90
23229;BME280;11783;50.350;6.576;2023-04-20T08:19:58;96090.69;;;4.74;99.55
23229;BME280;11783;50.350;6.576;2023-04-20T08:22:23;96090.91;;;4.73;100.00
23229;BME280;11783;50.350;6.576;2023-04-20T08:24:54;96093.84;;;4.90;97.40
23229;BME280;11783;50.350;6.576;2023-04-20T08:27:19;96089.34;;;4.97;94.29
23229;BME280;11783;50.350;6.576;2023-04-20T08:29:45;96083.09;;;4.91;98.38
23229;BME280;11783;50.350;6.576;2023-04-20T08:32:10;96083.91;;;4.92;98.12
23229;BME280;11783;50.350;6.576;2023-04-20T08:34:37;96094.94;;;5.13;96.11
23229;BME280;11783;50.350;6.576;2023-04-20T08:37:03;96095.13;;;5.12;94.62
23229;BME280;11783;50.350;6.576;2023-04-20T08:39:28;96077.06;;;5.22;95.22
23229;BME280;11783;50.350;6.576;2023-04-20T08:41:54;96083.28;;;5.28;93.65
23229;BME280;11783;50.350;6.576;2023-04-20T08:44:22;96075.59;;;5.26;96.59
23229;BME280;11783;50.350;6.576;2023-04-20T08:46:48;96074.75;;;5.32;97.81
23229;BME280;11783;50.350;6.576;2023-04-20T08:49:17;96075.00;;;5.24;99.87
23229;BME280;11783;50.350;6.576;2023-04-20T08:51:44;96081.00;;;5.06;100.00
23229;BME280;11783;50.350;6.576;2023-04-20T08:54:11;96085.09;;;5.02;100.00
23229;BME280;11783;50.350;6.576;2023-04-20T08:56:38;96082.19;;;5.10;96.16
23229;BME280;11783;50.350;6.576;2023-04-20T08:59:04;96087.50;;;5.04;94.84
23229;BME280;11783;50.350;6.576;2023-04-20T09:01:32;96087.38;;;5.24;95.56
23229;BME280;11783;50.350;6.576;2023-04-20T09:03:59;96085.34;;;5.26;94.89
23229;BME280;11783;50.350;6.576;2023-04-20T09:06:25;96083.66;;;5.31;95.33
23229;BME280;11783;50.350;6.576;2023-04-20T09:08:51;96088.47;;;5.41;93.60
23229;BME280;11783;50.350;6.576;2023-04-20T09:11:27;96086.25;;;4.68;96.97
23229;BME280;11783;50.350;6.576;2023-04-20T09:14:08;96082.03;;;5.05;96.05
23229;BME280;11783;50.350;6.576;2023-04-20T09:16:55;96085.78;;;5.16;96.27
23229;BME280;11783;50.350;6.576;2023-04-20T09:19:29;96076.19;;;5.28;95.52
23229;BME280;11783;50.350;6.576;2023-04-20T09:21:57;96082.66;;;5.32;91.76
23229;BME280;11783;50.350;6.576;2023-04-20T09:24:30;96084.69;;;5.30;90.37
23229;BME280;11783;50.350;6.576;2023-04-20T09:26:56;96080.22;;;5.31;90.01
23229;BME280;11783;50.350;6.576;2023-04-20T09:29:23;96073.97;;;4.94;96.28
23229;BME280;11783;50.350;6.576;2023-04-20T09:31:50;96073.38;;;4.92;99.53
23229;BME280;11783;50.350;6.576;2023-04-20T09:34:16;96078.75;;;5.10;95.39
23229;BME280;11783;50.350;6.576;2023-04-20T09:36:46;96079.63;;;5.29;96.75
23229;BME280;11783;50.350;6.576;2023-04-20T09:39:23;96078.34;;;5.38;93.87
23229;BME280;11783;50.350;6.576;2023-04-20T09:41:51;96075.13;;;5.04;98.54
23229;BME280;11783;50.350;6.576;2023-04-20T09:44:17;96072.28;;;5.06;98.99
23229;BME280;11783;50.350;6.576;2023-04-20T09:46:43;96072.06;;;5.07;98.80
23229;BME280;11783;50.350;6.576;2023-04-20T09:49:11;96069.91;;;5.29;97.56
23229;BME280;11783;50.350;6.576;2023-04-20T09:51:41;96066.63;;;5.34;93.70
23229;BME280;11783;50.350;6.576;2023-04-20T09:54:09;96062.06;;;5.47;100.00
23229;BME280;11783;50.350;6.576;2023-04-20T09:56:35;96056.94;;;5.53;97.45
23229;BME280;11783;50.350;6.576;2023-04-20T09:59:01;96052.00;;;5.63;95.65
23229;BME280;11783;50.350;6.576;2023-04-20T10:01:31;96054.50;;;5.76;96.62
23229;BME280;11783;50.350;6.576;2023-04-20T10:03:59;96048.50;;;5.69;95.19
23229;BME280;11783;50.350;6.576;2023-04-20T10:06:30;96052.53;;;5.71;94.64
23229;BME280;11783;50.350;6.576;2023-04-20T10:08:57;96058.72;;;5.84;95.45
23229;BME280;11783;50.350;6.576;2023-04-20T10:14:13;96056.38;;;6.00;94.97
23229;BME280;11783;50.350;6.576;2023-04-20T10:16:38;96045.81;;;6.19;90.40
23229;BME280;11783;50.350;6.576;2023-04-20T10:19:03;96047.69;;;5.93;93.84
23229;BME280;11783;50.350;6.576;2023-04-20T10:21:30;96041.94;;;5.78;95.31
23229;BME280;11783;50.350;6.576;2023-04-20T10:23:59;96033.22;;;6.02;92.83
23229;BME280;11783;50.350;6.576;2023-04-20T10:26:43;96039.56;;;6.13;93.97
23229;BME280;11783;50.350;6.576;2023-04-20T10:29:27;96044.50;;;6.28;91.17
23229;BME280;11783;50.350;6.576;2023-04-20T10:31:53;96042.44;;;6.12;90.29
23229;BME280;11783;50.350;6.576;2023-04-20T10:34:32;96041.13;;;6.21;93.90
23229;BME280;11783;50.350;6.576;2023-04-20T10:37:11;96040.53;;;6.19;93.05
23229;BME280;11783;50.350;6.576;2023-04-20T10:39:44;96042.88;;;6.27;91.48
23229;BME280;11783;50.350;6.576;2023-04-20T10:42:10;96047.28;;;6.15;91.09
23229;BME280;11783;50.350;6.576;2023-04-20T10:44:54;96042.38;;;6.36;91.42
23229;BME280;11783;50.350;6.576;2023-04-20T10:47:28;96048.69;;;6.54;88.17
23229;BME280;11783;50.350;6.576;2023-04-20T10:49:53;96047.56;;;6.61;90.92
23229;BME280;11783;50.350;6.576;2023-04-20T10:52:33;96049.72;;;6.53;90.34
23229;BME280;11783;50.350;6.576;2023-04-20T10:55:00;96034.44;;;6.55;89.78
23229;BME280;11783;50.350;6.576;2023-04-20T10:57:25;96044.41;;;6.53;88.73
23229;BME280;11783;50.350;6.576;2023-04-20T10:59:50;96041.25;;;6.44;89.01
23229;BME280;11783;50.350;6.576;2023-04-20T11:02:16;96043.00;;;6.50;88.54
23229;BME280;11783;50.350;6.576;2023-04-20T11:04:41;96038.41;;;6.46;87.94
23229;BME280;11783;50.350;6.576;2023-04-20T11:07:09;96035.97;;;6.44;86.17
23229;BME280;11783;50.350;6.576;2023-04-20T11:09:34;96042.50;;;6.42;86.64
23229;BME280;11783;50.350;6.576;2023-04-20T11:12:10;96036.75;;;6.33;86.38
23229;BME280;11783;50.350;6.576;2023-04-20T11:14:50;96041.63;;;6.48;86.62
23229;BME280;11783;50.350;6.576;2023-04-20T11:17:16;96030.34;;;6.41;88.96
23229;BME280;11783;50.350;6.576;2023-04-20T11:19:41;96037.16;;;6.30;90.06
23229;BME280;11783;50.350;6.576;2023-04-20T11:22:07;96040.31;;;6.38;90.20
23229;BME280;11783;50.350;6.576;2023-04-20T11:24:33;96032.03;;;6.35;91.64
23229;BME280;11783;50.350;6.576;2023-04-20T11:26:58;96028.97;;;6.38;89.08
23229;BME280;11783;50.350;6.576;2023-04-20T11:29:36;96026.31;;;6.20;88.68
23229;BME280;11783;50.350;6.576;2023-04-20T11:34:29;96023.09;;;6.36;92.12
23229;BME280;11783;50.350;6.576;2023-04-20T11:36:55;96019.91;;;6.46;89.41
23229;BME280;11783;50.350;6.576;2023-04-20T11:39:22;96019.84;;;6.52;96.40
23229;BME280;11783;50.350;6.576;2023-04-20T11:41:48;96016.03;;;6.48;94.46
23229;BME280;11783;50.350;6.576;2023-04-20T11:44:13;96019.53;;;6.60;91.27
23229;BME280;11783;50.350;6.576;2023-04-20T11:46:39;96013.28;;;6.73;90.67
23229;BME280;11783;50.350;6.576;2023-04-20T11:49:04;96006.75;;;6.76;93.23
23229;BME280;11783;50.350;6.576;2023-04-20T11:51:30;96015.81;;;6.80;93.51
23229;BME280;11783;50.350;6.576;2023-04-20T11:53:56;96010.13;;;6.64;93.78
23229;BME280;11783;50.350;6.576;2023-04-20T11:56:21;96009.03;;;6.72;91.53
23229;BME280;11783;50.350;6.576;2023-04-20T11:58:47;96010.19;;;6.76;91.42
23229;BME280;11783;50.350;6.576;2023-04-20T12:01:12;96004.59;;;6.84;92.27
23229;BME280;11783;50.350;6.576;2023-04-20T12:03:38;96006.19;;;6.85;93.61
23229;BME280;11783;50.350;6.576;2023-04-20T12:06:03;96007.72;;;6.93;93.68
23229;BME280;11783;50.350;6.576;2023-04-20T12:08:28;95996.28;;;7.11;89.64
23229;BME280;11783;50.350;6.576;2023-04-20T12:10:54;95999.63;;;7.18;91.45
23229;BME280;11783;50.350;6.576;2023-04-20T12:13:19;96001.69;;;7.16;88.36
23229;BME280;11783;50.350;6.576;2023-04-20T12:15:44;96003.06;;;7.18;89.56
23229;BME280;11783;50.350;6.576;2023-04-20T12:18:10;96000.44;;;7.18;88.44
23229;BME280;11783;50.350;6.576;2023-04-20T12:20:35;95997.91;;;7.23;85.70
23229;BME280;11783;50.350;6.576;2023-04-20T12:23:01;95999.28;;;7.14;86.36
23229;BME280;11783;50.350;6.576;2023-04-20T12:25:26;95987.78;;;7.20;87.79
23229;BME280;11783;50.350;6.576;2023-04-20T12:27:52;95987.25;;;7.30;88.78
23229;BME280;11783;50.350;6.576;2023-04-20T12:30:17;95996.91;;;7.36;90.42
23229;BME280;11783;50.350;6.576;2023-04-20T12:32:42;96003.31;;;7.17;86.33
23229;BME280;11783;50.350;6.576;2023-04-20T12:35:08;95984.25;;;7.38;86.33
23229;BME280;11783;50.350;6.576;2023-04-20T12:37:33;95986.22;;;7.43;84.76
23229;BME280;11783;50.350;6.576;2023-04-20T12:39:59;95991.63;;;7.48;86.61
23229;BME280;11783;50.350;6.576;2023-04-20T12:42:24;95983.91;;;7.58;85.84
23229;BME280;11783;50.350;6.576;2023-04-20T12:44:53;95985.88;;;7.74;84.29
23229;BME280;11783;50.350;6.576;2023-04-20T12:47:18;95988.53;;;7.74;81.10
23229;BME280;11783;50.350;6.576;2023-04-20T12:49:44;95978.03;;;7.91;85.35
23229;BME280;11783;50.350;6.576;2023-04-20T12:52:10;95978.59;;;8.05;82.25
23229;BME280;11783;50.350;6.576;2023-04-20T12:54:35;95973.63;;;8.20;79.12
23229;BME280;11783;50.350;6.576;2023-04-20T12:57:00;95966.25;;;8.22;82.59
23229;BME280;11783;50.350;6.576;2023-04-20T12:59:26;95958.97;;;8.29;79.63
23229;BME280;11783;50.350;6.576;2023-04-20T13:01:53;95970.44;;;8.58;81.80
23229;BME280;11783;50.350;6.576;2023-04-20T13:04:18;95966.97;;;8.86;77.52
23229;BME280;11783;50.350;6.576;2023-04-20T13:06:44;95959.50;;;8.83;78.43
23229;BME280;11783;50.350;6.576;2023-04-20T13:09:09;95970.59;;;8.97;76.51
23229;BME280;11783;50.350;6.576;2023-04-20T13:11:34;95960.03;;;9.14;75.58